Time;durP1;ratioP1;P1;durP2;ratioP2;P2;SDS_P1;SDS_P2;PMS_P1;PMS_P2;Temp;Humidity;BMP_temperature;BMP_pressure;BME280_temperature;BME280_humidity;BME280_pressure;Samples;Min_cycle;Max_cycle;Signal;HPM_P1;HPM_P2
2022/01/10 00:34:43;;;;;;;;;;;;;;;;;;;;;
2022/01/10 01:12:27;;;;;;;;;51.75;41.25;;;;;7.73;70.97;100835.75;6257985;22;45831;-86
2022/01/10 01:36:57;;;;;;;;;;;;;;;;;;;;;
2022/01/10 01:53:06;;;;;;;;;47.00;42.00;;;;;7.73;70.78;100926.59;6066063;23;45477;-87
2022/01/10 02:03:33;;;;;;;;;;;;;;;;;;;;;
2022/01/10 02:11:00;;;;;;;;;;;;;;;;;;;;;
2022/01/10 02:17:32;;;;;;;;;;;;;;;;;;;;;
2022/01/10 02:20:49;;;;;;;;;;;;;;;;;;;;;
2022/01/10 02:27:45;;;;;;;;;;;;;;;;;;;;;
2022/01/10 02:30:55;;;;;;;;;;;;;;;;;;;;;
2022/01/10 02:37:55;;;;;;;;;;;;;;;;;;;;;
2022/01/10 03:09:04;;;;;;;;;;;;;;;;;;;;;
2022/01/10 03:23:09;;;;;;;;;;;;;;;;;;;;;
2022/01/10 03:26:39;;;;;;;;;;;;;;;;;;;;;
2022/01/10 03:36:37;;;;;;;;;64.00;50.75;;;;;6.85;71.30;101011.84;6137557;23;45512;-87
2022/01/10 03:57:20;;;;;;;;;;;;;;;;;;;;;
2022/01/10 04:00:34;;;;;;;;;62.25;47.75;;;;;6.81;71.79;101061.47;6278083;22;72921;-88
2022/01/10 04:15:14;;;;;;;;;;;;;;;;;;;;;
2022/01/10 04:54:14;;;;;;;;;;;;;;;;;;;;;
2022/01/10 05:08:16;;;;;;;;;;;;;;;;;;;;;
2022/01/10 05:18:45;;;;;;;;;;;;;;;;;;;;;
2022/01/10 05:33:13;;;;;;;;;;;;;;;;;;;;;
2022/01/10 05:35:45;;;;;;;;;;;;;;;;;;;;;
2022/01/10 05:39:09;;;;;;;;;63.75;50.50;;;;;5.90;71.64;101213.03;6268897;22;71560;-86
2022/01/10 05:57:14;;;;;;;;;;;;;;;;;;;;;
2022/01/10 06:08:26;;;;;;;;;;;;;;;;;;;;;
2022/01/10 08:01:41;;;;;;;;;;;;;;;;;;;;;
2022/01/10 08:17:55;;;;;;;;;61.75;47.00;;;;;5.47;73.16;101575.88;6437467;22;45675;-85
2022/01/10 08:21:05;;;;;;;;;62.50;49.00;;;;;5.48;73.10;101581.97;6439214;22;45173;-87
2022/01/10 08:30:42;;;;;;;;;57.25;48.25;;;;;5.47;73.26;101595.88;6342997;22;45545;-89
2022/01/10 08:34:06;;;;;;;;;;;;;;;;;;;;;
2022/01/10 08:40:30;;;;;;;;;;;;;;;;;;;;;
2022/01/10 08:51:00;;;;;;;;;;;;;;;;;;;;;
2022/01/10 08:57:49;;;;;;;;;;;;;;;;;;;;;
2022/01/10 09:07:59;;;;;;;;;;;;;;;;;;;;;
2022/01/10 09:18:16;;;;;;;;;29.50;27.25;;;;;5.91;72.88;101679.97;5873726;24;45512;-80
2022/01/10 09:21:28;;;;;;;;;23.75;20.00;;;;;5.92;72.48;101682.59;5966500;23;45851;-81
2022/01/10 09:25:08;;;;;;;;;33.75;26.25;;;;;5.91;72.91;101699.13;6193583;22;46470;-86
2022/01/10 09:27:46;;;;;;;;;;;;;;;;;;;;;
2022/01/10 09:30:42;;;;;;;;;36.00;30.75;;;;;5.89;72.69;101692.09;6210679;22;69215;-82
2022/01/10 09:33:30;;;;;;;;;34.25;34.25;;;;;5.89;72.77;101700.81;6281586;22;45350;-83
2022/01/10 09:36:12;;;;;;;;;38.50;33.50;;;;;5.86;72.39;101698.09;6338568;22;45377;-80
2022/01/10 09:38:45;;;;;;;;;42.00;31.75;;;;;5.92;72.88;101711.34;6339470;22;45238;-81
2022/01/10 09:41:25;;;;;;;;;39.50;34.75;;;;;6.07;72.73;101721.44;6309464;22;45268;-80
2022/01/10 09:44:10;;;;;;;;;;;;;;;;;;;;;
2022/01/10 09:46:56;;;;;;;;;41.50;34.00;;;;;6.16;72.85;101719.09;6336742;22;74307;-79
2022/01/10 09:49:31;;;;;;;;;42.25;38.00;;;;;6.16;72.52;101719.09;6309561;22;45478;-80
2022/01/10 09:52:42;;;;;;;;;41.50;39.00;;;;;6.25;72.66;101722.81;6337934;22;45322;-84
2022/01/10 10:01:28;;;;;;;;;;;;;;;;;;;;;
2022/01/10 10:04:29;;;;;;;;;47.25;39.00;;;;;6.52;72.41;101765.50;6316550;22;67419;-87
2022/01/10 10:10:56;;;;;;;;;48.00;37.00;;;;;6.52;71.92;101756.75;6292007;22;46366;-84
2022/01/10 10:13:52;;;;;;;;;;;;;;;;;;;;;
2022/01/10 10:17:21;;;;;;;;;;;;;;;;;;;;;
2022/01/10 10:20:53;;;;;;;;;40.50;35.00;;;;;6.52;72.15;101765.50;6337587;22;45301;-85
2022/01/10 10:23:33;;;;;;;;;43.00;37.50;;;;;6.49;71.75;101772.34;6287067;22;45420;-85
2022/01/10 10:26:37;;;;;;;;;;;;;;;;;;;;;
2022/01/10 10:29:30;;;;;;;;;43.00;37.75;;;;;6.60;72.12;101778.78;6329623;22;67031;-84
2022/01/10 10:32:16;;;;;;;;;;;;;;;;;;;;;
2022/01/10 10:35:31;;;;;;;;;43.25;36.50;;;;;6.65;72.24;101785.03;6368865;22;73950;-84
2022/01/10 10:39:13;;;;;;;;;;;;;;;;;;;;;
2022/01/10 10:41:44;;;;;;;;;;;;;;;;;;;;;
2022/01/10 10:44:28;;;;;;;;;42.50;36.50;;;;;6.79;71.95;101788.94;6369864;22;71856;-84
2022/01/10 10:47:44;;;;;;;;;48.50;38.25;;;;;6.69;71.74;101779.06;6367530;22;48106;-84
2022/01/10 10:50:47;;;;;;;;;;;;;;;;;;;;;
2022/01/10 10:53:56;;;;;;;;;;;;;;;;;;;;;
2022/01/10 10:56:29;;;;;;;;;42.50;37.00;;;;;6.93;71.87;101801.53;6363195;22;45402;-82
2022/01/10 10:59:15;;;;;;;;;46.25;39.00;;;;;6.90;71.56;101796.22;6368658;22;46922;-84
2022/01/10 11:02:02;;;;;;;;;49.00;38.00;;;;;7.06;71.42;101819.38;6374523;22;45379;-82
2022/01/10 11:04:36;;;;;;;;;42.00;35.25;;;;;6.98;71.68;101802.56;6375293;22;45308;-80
2022/01/10 11:07:22;;;;;;;;;;;;;;;;;;;;;
2022/01/10 11:09:58;;;;;;;;;35.75;28.75;;;;;7.09;71.63;101808.97;6374743;22;75639;-84
2022/01/10 11:13:05;;;;;;;;;;;;;;;;;;;;;
2022/01/10 11:15:45;;;;;;;;;47.00;37.00;;;;;7.02;71.22;101794.81;6383155;22;67632;-85
2022/01/10 11:18:24;;;;;;;;;38.00;34.25;;;;;7.12;71.15;101816.91;6380328;22;45419;-84
2022/01/10 11:21:08;;;;;;;;;39.25;36.50;;;;;7.11;71.42;101812.53;6383710;22;46560;-84
2022/01/10 11:23:45;;;;;;;;;37.00;30.00;;;;;7.11;70.83;101816.84;6373296;22;45356;-83
2022/01/10 11:26:38;;;;;;;;;33.50;30.00;;;;;7.00;71.05;101807.00;6384631;22;45107;-89
2022/01/10 11:29:12;;;;;;;;;37.75;31.00;;;;;6.99;70.98;101818.28;6384408;22;45474;-82
2022/01/10 11:31:46;;;;;;;;;29.50;28.75;;;;;6.97;70.95;101825.22;6373310;22;45484;-83
2022/01/10 11:34:21;;;;;;;;;34.50;32.00;;;;;7.00;71.20;101841.03;6373345;22;45449;-84
2022/01/10 11:36:51;;;;;;;;;41.00;34.25;;;;;6.87;71.29;101822.28;6371488;22;45383;-82
2022/01/10 11:39:22;;;;;;;;;34.00;30.00;;;;;6.94;71.08;101835.59;6371109;22;45490;-82
2022/01/10 11:41:56;;;;;;;;;42.00;37.25;;;;;6.97;71.03;101846.16;6372428;22;45386;-83
2022/01/10 11:44:24;;;;;;;;;36.75;32.50;;;;;6.91;71.10;101843.38;6372959;22;45378;-84
2022/01/10 11:46:58;;;;;;;;;35.25;30.00;;;;;6.84;71.25;101839.69;6369541;22;45306;-83
2022/01/10 11:49:25;;;;;;;;;31.50;27.75;;;;;6.84;71.60;101842.31;6371463;22;45711;-82
2022/01/10 11:51:53;;;;;;;;;40.50;34.50;;;;;6.94;71.49;101859.16;6372635;22;45198;-84
2022/01/10 11:54:34;;;;;;;;;40.50;32.25;;;;;6.95;71.51;101858.34;6369133;22;45425;-83
2022/01/10 11:57:39;;;;;;;;;35.50;30.75;;;;;6.93;71.58;101859.13;6370725;22;45245;-83
2022/01/10 12:00:29;;;;;;;;;41.75;35.25;;;;;6.78;71.53;101836.00;6372426;22;45362;-83
2022/01/10 12:03:00;;;;;;;;;36.25;32.25;;;;;6.89;71.48;101847.66;6374582;22;46012;-84
2022/01/10 12:05:30;;;;;;;;;51.75;39.25;;;;;6.94;71.65;101851.31;6375492;22;45252;-83
2022/01/10 12:08:00;;;;;;;;;46.00;36.25;;;;;7.01;71.54;101858.50;6373830;22;45192;-82
2022/01/10 12:10:37;;;;;;;;;41.00;35.00;;;;;6.98;71.82;101842.72;6372266;22;45376;-83
2022/01/10 12:13:14;;;;;;;;;50.25;38.75;;;;;7.09;71.86;101855.22;6398306;22;47079;-82
2022/01/10 12:15:50;;;;;;;;;40.50;35.00;;;;;7.16;71.65;101870.25;6372865;22;45201;-84
2022/01/10 12:18:18;;;;;;;;;49.50;36.25;;;;;7.20;71.66;101877.38;6397794;22;45280;-84
2022/01/10 12:20:49;;;;;;;;;41.50;37.00;;;;;7.20;71.40;101875.63;6369798;22;45336;-83
2022/01/10 12:23:23;;;;;;;;;44.25;37.00;;;;;7.25;71.43;101878.38;6371881;22;47972;-83
2022/01/10 12:25:48;;;;;;;;;53.50;37.75;;;;;7.26;71.34;101883.66;6369663;22;45167;-82
2022/01/10 12:28:16;;;;;;;;;46.75;35.75;;;;;7.24;71.28;101898.47;6372529;22;45244;-82
2022/01/10 12:30:54;;;;;;;;;;;;;;;;;;;;;
2022/01/10 12:33:23;;;;;;;;;38.00;34.25;;;;;7.23;71.16;101891.41;6371828;22;74998;-88
2022/01/10 16:13:24;;;;;;;;;32.00;28.25;;;;;6.80;70.54;102128.34;6370423;22;46208;-91
2022/01/10 16:50:24;;;;;;;;;30.75;27.75;;;;;6.75;70.92;102195.34;6369551;22;45183;-91
2022/01/10 16:52:55;;;;;;;;;29.50;24.50;;;;;6.73;70.73;102194.38;6407365;22;45496;-89
2022/01/10 16:55:26;;;;;;;;;25.75;23.25;;;;;6.70;70.55;102203.88;6404903;22;45212;-90
2022/01/10 16:57:59;;;;;;;;;31.50;25.50;;;;;6.74;70.48;102224.09;6405150;22;45521;-91
2022/01/10 17:00:30;;;;;;;;;31.75;28.50;;;;;6.72;70.56;102234.50;6403800;22;47076;-89
2022/01/10 17:10:25;;;;;;;;;;;;;;;;;;;;;
2022/01/10 17:13:40;;;;;;;;;32.75;29.25;;;;;6.56;70.43;102251.34;6273636;22;74512;-88
2022/01/10 18:50:17;;;;;;;;;;;;;;;;;;;;;
2022/01/10 19:58:35;;;;;;;;;37.00;31.25;;;;;6.03;70.42;102448.00;6280486;22;45525;-91
2022/01/10 20:06:16;;;;;;;;;35.25;31.25;;;;;5.89;69.99;102424.75;6075311;23;45532;-94
2022/01/10 20:12:39;;;;;;;;;38.75;35.50;;;;;5.95;69.92;102439.81;5949759;23;45353;-93
2022/01/10 20:15:36;;;;;;;;;;;;;;;;;;;;;
2022/01/10 20:22:00;;;;;;;;;37.25;35.00;;;;;5.89;69.93;102461.34;5997844;23;45495;-93
2022/01/10 20:24:59;;;;;;;;;37.00;35.75;;;;;5.86;69.92;102463.81;6007108;23;45604;-92
2022/01/10 20:27:27;;;;;;;;;35.00;29.75;;;;;5.80;69.75;102458.34;6166024;22;45565;-93
2022/01/10 20:29:58;;;;;;;;;33.25;28.75;;;;;5.66;70.24;102428.06;6296956;22;48199;-93
2022/01/10 20:32:29;;;;;;;;;41.75;32.50;;;;;5.86;70.04;102471.66;6293213;22;45606;-93
2022/01/10 20:34:57;;;;;;;;;35.25;33.25;;;;;5.82;70.13;102456.66;6303069;22;44787;-93
2022/01/10 20:37:56;;;;;;;;;39.75;36.00;;;;;5.78;70.09;102452.16;6306479;22;44811;-95
2022/01/10 20:40:37;;;;;;;;;37.50;33.00;;;;;5.93;70.11;102467.56;6303200;22;46642;-94
2022/01/10 20:43:19;;;;;;;;;41.00;36.75;;;;;5.84;70.04;102460.25;6304768;22;45075;-94
2022/01/10 20:45:49;;;;;;;;;35.75;31.75;;;;;5.73;70.14;102440.59;6278705;22;45220;-93
2022/01/10 20:48:38;;;;;;;;;36.00;30.25;;;;;5.88;70.09;102467.41;6273087;22;44852;-93
2022/01/10 20:51:06;;;;;;;;;33.50;30.25;;;;;5.84;69.78;102462.84;6293229;22;46945;-95
2022/01/10 20:53:33;;;;;;;;;31.25;28.50;;;;;5.80;69.57;102460.03;6292928;22;46212;-94
2022/01/10 20:56:03;;;;;;;;;27.25;26.75;;;;;5.70;69.21;102467.47;6297968;22;44655;-95
2022/01/10 20:58:37;;;;;;;;;30.75;27.50;;;;;5.83;69.24;102495.06;6263349;22;45712;-95
2022/01/10 21:01:24;;;;;;;;;23.25;22.25;;;;;5.81;69.42;102488.84;6271857;22;47129;-94
2022/01/10 21:04:06;;;;;;;;;26.50;23.00;;;;;5.77;69.18;102489.53;6265573;22;44696;-96
2022/01/10 21:06:41;;;;;;;;;26.50;22.75;;;;;5.68;69.13;102478.69;6258435;22;45865;-94
2022/01/10 21:09:11;;;;;;;;;38.25;26.50;;;;;5.70;69.40;102484.88;6253880;22;45409;-92
2022/01/10 21:11:40;;;;;;;;;33.00;26.00;;;;;5.75;69.21;102486.88;6255139;22;47037;-90
2022/01/10 21:14:24;;;;;;;;;;;;;;;;;;;;;
2022/01/10 21:17:03;;;;;;;;;27.50;24.00;;;;;5.79;69.34;102481.78;6268076;22;68118;-92
2022/01/10 21:20:06;;;;;;;;;29.75;26.25;;;;;5.65;69.34;102461.16;6262251;22;44787;-95
2022/01/10 21:25:52;;;;;;;;;29.75;28.25;;;;;5.69;69.64;102462.19;6257783;22;44767;-94
2022/01/10 21:28:25;;;;;;;;;33.25;27.25;;;;;5.74;69.32;102478.94;6256857;22;44721;-94
2022/01/10 21:31:19;;;;;;;;;26.50;24.25;;;;;5.88;69.05;102511.84;6233298;22;44772;-93
2022/01/10 21:34:31;;;;;;;;;27.75;27.25;;;;;5.86;68.95;102523.03;6242780;22;46719;-92
2022/01/10 21:37:18;;;;;;;;;26.50;24.50;;;;;5.72;69.05;102502.41;6255928;22;45354;-94
2022/01/10 21:40:02;;;;;;;;;26.75;25.75;;;;;5.85;69.20;102511.66;6254537;22;45468;-91
2022/01/10 21:42:49;;;;;;;;;29.25;25.25;;;;;5.74;69.16;102495.53;6250295;22;45768;-91
2022/01/10 21:45:18;;;;;;;;;30.50;27.75;;;;;5.80;69.40;102504.47;6252778;22;47761;-92
2022/01/10 21:48:26;;;;;;;;;27.25;24.75;;;;;5.77;69.19;102496.47;6256497;22;44956;-93
2022/01/10 21:51:18;;;;;;;;;33.00;25.50;;;;;5.81;69.39;102507.16;6246084;22;45415;-93
2022/01/10 21:53:49;;;;;;;;;28.75;25.50;;;;;5.91;68.98;102530.25;6251870;22;44747;-93
2022/01/10 21:56:46;;;;;;;;;;;;;;;;;;;;;
2022/01/10 21:59:11;;;;;;;;;26.25;23.50;;;;;5.82;68.97;102515.88;6223974;22;72546;-93
2022/01/10 22:02:15;;;;;;;;;30.50;27.50;;;;;5.96;69.15;102544.47;6266484;22;45358;-93
2022/01/10 22:05:37;;;;;;;;;;;;;;;;;;;;;
2022/01/10 22:08:26;;;;;;;;;30.25;28.75;;;;;5.83;69.18;102529.03;6259478;22;76841;-92
2022/01/10 22:11:19;;;;;;;;;29.50;26.00;;;;;5.87;68.98;102541.38;6266846;22;45075;-93
2022/01/10 22:14:05;;;;;;;;;27.50;24.00;;;;;5.73;69.32;102514.66;6252399;22;45533;-90
2022/01/10 22:16:57;;;;;;;;;26.25;24.00;;;;;5.95;69.44;102545.28;6250646;22;44897;-94
2022/01/10 22:19:37;;;;;;;;;29.50;28.50;;;;;5.99;69.19;102553.25;6256300;22;48227;-95
2022/01/10 22:22:13;;;;;;;;;36.75;28.25;;;;;5.84;68.96;102528.19;6249022;22;45620;-94
2022/01/10 22:25:05;;;;;;;;;21.50;12.75;;;;;5.81;68.74;102520.22;6255402;22;45412;-95
2022/01/10 22:27:54;;;;;;;;;30.75;30.50;;;;;5.90;68.93;102540.63;6260041;22;45707;-93
2022/01/10 22:30:31;;;;;;;;;34.50;31.75;;;;;5.81;68.83;102535.00;6260854;22;45578;-94
2022/01/10 22:32:56;;;;;;;;;30.25;25.75;;;;;5.77;69.09;102528.72;6256281;22;45363;-95
2022/01/10 22:35:58;;;;;;;;;36.00;26.00;;;;;5.83;69.10;102547.31;6252504;22;44855;-94
2022/01/10 22:38:34;;;;;;;;;37.50;30.50;;;;;5.89;69.02;102559.78;6252733;22;45314;-95
2022/01/10 22:41:06;;;;;;;;;29.25;28.75;;;;;5.84;69.34;102543.88;6254153;22;46813;-95
2022/01/10 22:43:49;;;;;;;;;;;;;;;;;;;;;
2022/01/10 22:46:21;;;;;;;;;35.00;31.50;;;;;5.87;68.96;102569.25;6251337;22;67930;-91
2022/01/10 22:48:51;;;;;;;;;33.50;29.75;;;;;5.97;68.76;102588.06;6251981;22;45638;-92
2022/01/10 22:51:32;;;;;;;;;33.50;30.75;;;;;5.89;69.70;102568.50;6253275;22;47083;-92
2022/01/10 22:53:58;;;;;;;;;29.50;27.50;;;;;5.77;69.09;102549.63;6253437;22;45636;-92
2022/01/10 22:56:33;;;;;;;;;41.25;33.75;;;;;5.80;69.19;102546.28;6248590;22;45351;-91
2022/01/10 22:59:17;;;;;;;;;37.00;32.50;;;;;5.94;69.08;102568.75;6248426;22;45383;-92
2022/01/10 23:02:16;;;;;;;;;;;;;;;;;;;;;
2022/01/10 23:04:52;;;;;;;;;31.50;29.25;;;;;5.90;69.33;102567.66;6250912;22;72363;-91
2022/01/10 23:07:18;;;;;;;;;36.25;34.25;;;;;5.93;69.47;102574.75;6250650;22;45436;-92
2022/01/10 23:09:55;;;;;;;;;33.25;29.50;;;;;5.78;69.08;102534.88;6252328;22;44858;-92
2022/01/10 23:12:24;;;;;;;;;37.25;30.25;;;;;5.92;69.11;102576.47;6252284;22;46578;-91
2022/01/10 23:14:50;;;;;;;;;31.75;29.75;;;;;5.98;69.23;102583.72;6251987;22;45434;-91
2022/01/10 23:17:20;;;;;;;;;32.75;31.00;;;;;5.89;69.21;102570.22;6254337;22;45469;-93
2022/01/10 23:20:00;;;;;;;;;33.00;28.25;;;;;6.02;69.17;102592.63;6255236;22;45335;-95
2022/01/10 23:22:42;;;;;;;;;28.00;25.50;;;;;5.90;69.52;102572.88;6257110;22;46772;-95
2022/01/10 23:25:21;;;;;;;;;;;;;;;;;;;;;
2022/01/10 23:29:12;;;;;;;;;;;;;;;;;;;;;
2022/01/10 23:38:47;;;;;;;;;27.50;23.00;;;;;5.83;69.02;102590.88;6043100;23;45727;-92
2022/01/10 23:50:55;;;;;;;;;32.00;27.25;;;;;5.69;69.18;102583.28;6232696;22;45335;-95
2022/01/10 23:53:27;;;;;;;;;33.25;28.75;;;;;5.78;69.45;102608.06;6249260;22;45351;-92
2022/01/10 23:55:58;;;;;;;;;26.75;25.25;;;;;5.80;69.60;102615.13;6222677;22;45871;-93
2022/01/10 23:58:39;;;;;;;;;;;;;;;;;;;;;
